Islamabad, Pakistan

12:58 AM PKT on October 24, 2014 (GMT +0500)
Chacklala International | Change Station
CLOSE
Current Station
Airport
Location: Islamabad,
Elevation: 1667 ft
Nearby Weather Stations

Elev 1667 ft 33.62 °N, 73.10 °E | Updated 58 minutes ago

Thunderstorms and Rain
Thunderstorm Rain
64 °F
Feels Like 64 °F
N
14
Wind Variable Wind from NE

Today
High -- | Low -- °F
--% Chance of Precip.
Yesterday
High -- | Low -- °F
Precip. -- in
6:19 AM 5:23 PM
Waning Crescent, 0% visible
Pressure 30.09 in
Visibility 1.9 miles
Clouds Few 2500 ft
Scattered Clouds 3500 ft
Mostly Cloudy 10000 ft
Dew Point 57 °F
Humidity 77%
Rainfall 0.00 in
Snow Depth Not available.
UV 0 out of 12
Pollen Not available.
Air Quality Not available.
Flu Activity Not available.
METAR OPRN 231900Z 05012KT 3000 TSRA FEW025CB SCT035 BKN100 18/14 Q1019.1/30.09

More Conditions Fewer Conditions

Pressure 30.09 in
Visibility 1.9 miles
Clouds Few 2500 ft
Scattered Clouds 3500 ft
Mostly Cloudy 10000 ft
Dew Point 57 °F
Humidity 77%
Rainfall 0.00 in
Snow Depth Not available.
UV 0 out of 12
Pollen Not available.
Air Quality Not available.
Flu Activity Not available.
METAR OPRN 231900Z 05012KT 3000 TSRA FEW025CB SCT035 BKN100 18/14 Q1019.1/30.09

More Conditions Fewer Conditions

10-Day Weather Forecast

Almanac

Astronomy

Oct. 24, 2014 Rise Set
Actual Time 6:19 AM PKT 5:23 PM PKT
Civil Twilight 5:53 AM PKT 5:49 PM PKT
Nautical Twilight 5:24 AM PKT 6:18 PM PKT
Astronomical Twilight 4:55 AM PKT 6:47 PM PKT
Moon 6:30 AM PKT (10/24) 5:47 PM PKT (10/24)
Length of Visible Light 11h 55m
Length of Day
11h 04m
Tomorrow will be 1m 55s shorter.
Waning Crescent, 0% of the Moon is Illuminated
Oct 23
Waning Crescent
Oct 23
New
Oct 30
First Quarter
Nov 6
Full
Nov 14
Last Quarter

Yesterday's Extremes

Country Highs Country Lows

Community

WunderPhotos

Upload Photos

1,764,350 photos uploaded!

WunderBlogs® & News

By Dr. Jeff Masters
Director of Meteorology, Weather Underground
By Kari Strenfel
Meteorologist, Weather Underground
By Christopher C. Burt
Weather Historian, Weather Underground
October 23, 2014
October 23, 2014
October 23, 2014

Nearby

Snow Depth

Not available.

Earthquake Activity

City Distance Mag. Time & Date
No recent earthquake activity has been reported nearby.
Minimum magnitude displayed is 2.5.

Coastal Water Temperatures

Place Temperature
No Stations Reporting

Nearby Weather Stations